createdAt,value
2018-06-14T00:01:49.579Z,0.40
2018-06-14T03:17:25.149Z,0.20
2018-06-14T04:09:40.029Z,0.30
2018-06-14T04:25:14.125Z,0.23
2018-06-14T05:09:48.898Z,0.43
2018-06-14T05:52:53.617Z,0.57
2018-06-14T05:55:23.571Z,0.80
2018-06-14T05:57:52.349Z,0.60
2018-06-14T06:00:20.782Z,0.63
2018-06-14T06:02:51.166Z,0.70
2018-06-14T06:05:20.864Z,0.70
2018-06-14T06:07:49.495Z,0.53
2018-06-14T06:10:17.636Z,0.60
2018-06-14T06:12:46.073Z,0.80
2018-06-14T06:15:23.520Z,0.97
2018-06-14T06:17:53.720Z,0.70
2018-06-14T06:20:25.310Z,0.70
2018-06-14T06:22:54.799Z,0.73
2018-06-14T06:25:23.202Z,1.30
2018-06-14T06:27:53.957Z,0.90
2018-06-14T06:30:22.255Z,0.90
2018-06-14T06:32:50.655Z,1.10
2018-06-14T06:35:19.525Z,1.10
2018-06-14T06:37:47.831Z,1.00
2018-06-14T06:40:16.682Z,1.10
2018-06-14T06:42:44.976Z,1.10
2018-06-14T06:45:13.289Z,1.20
2018-06-14T06:47:41.543Z,1.10
2018-06-14T06:50:10.246Z,1.10
2018-06-14T06:52:39.720Z,1.30
2018-06-14T06:55:50.161Z,1.17
2018-06-14T06:58:18.595Z,1.03
2018-06-14T07:00:47.551Z,1.07
2018-06-14T07:03:16.237Z,1.50
2018-06-14T07:05:45.038Z,1.20
2018-06-14T07:08:13.766Z,1.10
2018-06-14T07:10:42.046Z,0.90
2018-06-14T07:13:10.312Z,1.07
2018-06-14T07:15:39.178Z,1.47
2018-06-14T07:18:07.585Z,1.10
2018-06-14T07:23:12.468Z,0.87
2018-06-14T07:25:40.798Z,1.40
2018-06-14T07:28:09.780Z,1.33
2018-06-14T07:30:38.617Z,1.27
2018-06-14T07:33:07.999Z,1.00
2018-06-14T07:35:37.194Z,1.50
2018-06-14T07:38:06.167Z,1.30
2018-06-14T07:40:35.086Z,1.10
2018-06-14T07:43:04.212Z,1.33
2018-06-14T07:45:32.502Z,1.03
2018-06-14T07:48:01.268Z,1.47
2018-06-14T07:50:29.951Z,1.17
2018-06-14T07:52:58.772Z,1.37
2018-06-14T07:55:27.537Z,1.20
2018-06-14T07:57:55.922Z,1.27
2018-06-14T08:00:25.263Z,0.93
2018-06-14T08:02:54.222Z,1.40
2018-06-14T08:05:22.742Z,0.90
2018-06-14T08:07:51.499Z,1.00
2018-06-14T08:10:19.715Z,1.10
2018-06-14T08:12:47.968Z,1.23
2018-06-14T08:15:16.857Z,0.93
2018-06-14T08:17:45.029Z,1.27
2018-06-14T08:20:13.827Z,1.30
2018-06-14T08:22:42.020Z,1.27
2018-06-14T08:25:11.007Z,1.87
2018-06-14T08:27:40.025Z,1.27
2018-06-14T08:30:09.204Z,0.60
2018-06-14T08:32:37.579Z,1.70
2018-06-14T08:35:06.285Z,1.40
2018-06-14T08:37:34.658Z,1.17
2018-06-14T08:40:03.072Z,1.60
2018-06-14T08:42:31.884Z,1.50
2018-06-14T08:45:00.217Z,1.40
2018-06-14T08:47:28.343Z,1.50
2018-06-14T08:49:57.064Z,1.30
2018-06-14T08:52:26.043Z,1.50
2018-06-14T08:54:55.017Z,1.60
2018-06-14T08:57:23.784Z,1.30
2018-06-14T08:59:52.033Z,1.30
2018-06-14T09:02:20.227Z,1.23
2018-06-14T09:04:49.227Z,1.40
2018-06-14T09:07:18.221Z,1.50
2018-06-14T09:09:47.433Z,1.57
2018-06-14T09:12:15.801Z,1.60
2018-06-14T09:14:46.853Z,0.70
2018-06-14T09:17:16.520Z,1.57
2018-06-14T09:19:44.955Z,1.30
2018-06-14T09:22:14.753Z,1.30
2018-06-14T09:24:43.048Z,1.30
2018-06-14T09:27:12.539Z,1.30
2018-06-14T09:29:40.732Z,1.33
2018-06-14T09:32:10.120Z,1.30
2018-06-14T13:48:36.164Z,1.77
2018-06-14T13:51:24.807Z,1.70
2018-06-14T14:12:43.039Z,2.20
2018-06-14T14:29:31.342Z,1.90
2018-06-14T14:32:10.984Z,1.67
2018-06-14T14:35:04.539Z,1.93
2018-06-14T14:46:30.384Z,2.07
2018-06-14T14:49:08.960Z,1.60
2018-06-14T14:51:49.454Z,1.83
2018-06-14T14:54:25.818Z,1.63
2018-06-14T14:56:54.920Z,1.80
2018-06-14T14:59:23.812Z,1.10
2018-06-14T15:01:53.322Z,1.50
2018-06-14T15:06:01.793Z,1.90
2018-06-14T15:08:32.060Z,1.87
2018-06-14T15:11:00.628Z,1.97
2018-06-14T15:13:36.778Z,2.10
2018-06-14T15:16:07.706Z,1.73
2018-06-14T15:18:51.438Z,1.70
2018-06-14T15:21:36.194Z,2.87
2018-06-14T15:24:07.449Z,1.70
2018-06-14T15:29:14.442Z,1.70
2018-06-14T15:31:45.011Z,1.97
2018-06-14T15:43:17.668Z,2.60
2018-06-14T15:45:48.094Z,2.33
2018-06-14T15:48:19.653Z,2.40
2018-06-14T15:50:52.130Z,2.07
2018-06-14T15:53:29.081Z,3.90
2018-06-14T15:59:07.936Z,2.03
2018-06-14T16:01:37.208Z,2.23
2018-06-14T16:04:06.913Z,2.53
2018-06-14T16:06:42.610Z,1.80
2018-06-14T16:15:24.093Z,2.00
2018-06-14T16:17:53.526Z,4.57
2018-06-14T16:20:24.148Z,1.37
2018-06-14T16:33:34.971Z,1.77
2018-06-14T16:36:21.584Z,2.13
2018-06-14T16:39:08.472Z,2.17
2018-06-14T16:41:49.237Z,1.70
2018-06-14T16:44:19.975Z,2.67
2018-06-14T16:46:51.940Z,1.90
2018-06-14T16:49:21.861Z,2.40
2018-06-14T17:05:48.557Z,1.80
2018-06-14T17:08:23.082Z,2.17
2018-06-14T17:26:26.177Z,1.90
2018-06-14T17:28:55.303Z,3.00
2018-06-14T17:31:24.078Z,2.07
2018-06-14T17:33:53.680Z,2.50
2018-06-14T17:36:23.651Z,2.00
2018-06-14T17:38:53.004Z,2.67
2018-06-14T17:41:25.455Z,2.30
2018-06-14T17:44:01.135Z,2.30
2018-06-14T17:46:33.629Z,2.13
2018-06-14T17:49:04.450Z,2.20
2018-06-14T17:51:39.382Z,2.30
2018-06-14T17:54:40.679Z,2.70
2018-06-14T17:57:09.738Z,2.23
2018-06-14T17:59:40.761Z,2.43
2018-06-14T18:02:12.209Z,2.33
2018-06-14T18:04:42.637Z,2.30
2018-06-14T18:07:13.627Z,2.40
2018-06-14T18:09:42.665Z,2.50
2018-06-14T18:12:11.462Z,2.43
2018-06-14T18:14:40.674Z,2.00
2018-06-14T18:17:09.671Z,2.10
2018-06-14T18:19:45.221Z,2.10
2018-06-14T18:22:32.123Z,2.07
2018-06-14T18:25:02.861Z,2.37
2018-06-14T18:27:38.406Z,2.60
2018-06-14T18:30:08.123Z,3.00
2018-06-14T18:32:39.511Z,2.47
2018-06-14T18:51:20.230Z,2.37
2018-06-14T18:53:49.535Z,2.07
2018-06-14T18:56:20.680Z,2.10
2018-06-14T18:58:49.572Z,2.00
2018-06-14T19:01:18.373Z,2.37
2018-06-14T19:03:47.312Z,1.90
2018-06-14T19:06:16.243Z,2.20
2018-06-14T19:08:44.849Z,1.77
2018-06-14T19:11:14.050Z,2.37
2018-06-14T19:13:42.691Z,1.93
2018-06-14T19:16:11.456Z,2.10
2018-06-14T19:18:40.471Z,1.60
2018-06-14T19:21:09.560Z,2.00
2018-06-14T19:23:39.122Z,1.63
2018-06-14T19:26:30.256Z,2.17
2018-06-14T19:29:02.510Z,1.50
2018-06-14T19:31:39.079Z,1.80
2018-06-14T19:34:08.039Z,1.47
2018-06-14T19:36:43.728Z,1.80
2018-06-14T19:39:18.433Z,1.27
2018-06-14T19:41:47.247Z,1.50
2018-06-14T19:44:16.092Z,1.53
2018-06-14T19:46:44.935Z,1.70
2018-06-14T19:49:14.255Z,1.30
2018-06-14T19:51:43.037Z,1.50
2018-06-14T19:54:11.927Z,1.20
2018-06-14T19:56:40.927Z,1.40
2018-06-14T19:59:10.440Z,1.53
2018-06-14T20:01:39.507Z,1.50
2018-06-14T20:04:09.350Z,1.43
2018-06-14T20:06:40.525Z,1.53
2018-06-14T20:09:10.444Z,1.20
2018-06-14T20:11:42.482Z,1.40
2018-06-14T20:14:11.762Z,1.33
2018-06-14T20:16:43.635Z,1.40
2018-06-14T20:19:12.952Z,1.10
2018-06-14T20:21:42.668Z,1.50
2018-06-14T20:24:11.974Z,1.57
2018-06-14T20:26:41.708Z,1.70
2018-06-14T20:29:17.445Z,1.33
2018-06-14T20:31:46.740Z,1.50
2018-06-14T20:34:17.171Z,1.50
2018-06-14T20:36:48.118Z,1.70
2018-06-14T20:39:19.871Z,1.40
2018-06-14T20:57:36.459Z,1.60
2018-06-14T21:00:05.474Z,1.43
2018-06-14T21:02:34.982Z,1.60
2018-06-14T21:05:05.159Z,1.53
2018-06-14T21:07:36.133Z,1.40
2018-06-14T21:10:11.698Z,1.50
2018-06-14T21:12:40.899Z,1.50
2018-06-14T21:15:16.806Z,1.50
2018-06-14T21:17:46.056Z,1.70
2018-06-14T21:20:16.589Z,1.63
2018-06-14T21:22:45.817Z,1.60
2018-06-14T21:25:15.213Z,1.40
2018-06-14T21:32:43.827Z,1.70
2018-06-14T21:35:30.629Z,1.47
2018-06-14T21:37:59.617Z,1.53
2018-06-14T21:40:28.726Z,2.33
2018-06-14T21:42:57.418Z,2.00
2018-06-14T21:45:26.442Z,1.70
2018-06-14T21:47:55.207Z,1.60
2018-06-14T21:50:24.102Z,1.50
2018-06-14T21:52:53.871Z,1.90
2018-06-14T21:55:23.018Z,1.87
2018-06-14T21:57:52.120Z,1.60
2018-06-14T22:00:25.517Z,1.77
2018-06-14T22:03:09.312Z,1.83
2018-06-14T22:05:38.401Z,1.90
2018-06-14T22:08:10.417Z,1.70
2018-06-14T22:17:45.737Z,1.70
2018-06-14T22:20:40.214Z,1.70
2018-06-14T22:23:13.011Z,1.80
2018-06-14T22:25:48.745Z,1.73
2018-06-14T22:28:18.360Z,1.90
2018-06-14T22:30:47.458Z,1.57
2018-06-14T22:33:21.677Z,1.57
2018-06-14T22:46:44.177Z,1.73
2018-06-14T22:49:15.627Z,1.70
2018-06-14T22:51:49.536Z,2.07
2018-06-14T22:54:22.551Z,1.43
2018-06-14T22:56:58.173Z,2.13
2018-06-14T23:11:59.322Z,2.03
2018-06-14T23:14:28.727Z,2.23
2018-06-14T23:16:59.008Z,2.03
2018-06-14T23:19:28.975Z,2.10
2018-06-14T23:21:59.309Z,2.10
2018-06-14T23:24:28.400Z,2.07
2018-06-14T23:26:57.739Z,2.10
2018-06-14T23:29:27.625Z,1.73
2018-06-14T23:31:56.825Z,2.17
2018-06-14T23:34:25.762Z,2.00
2018-06-14T23:36:57.073Z,2.10
2018-06-14T23:39:26.069Z,2.20
2018-06-14T23:41:55.476Z,2.50
2018-06-14T23:44:24.575Z,2.27
2018-06-14T23:47:00.655Z,2.37
2018-06-14T23:49:30.658Z,2.20
2018-06-14T23:52:01.493Z,2.00
2018-06-14T23:54:30.900Z,3.37
2018-06-14T23:57:04.127Z,2.83
2018-06-14T23:59:33.320Z,2.40
